createdAt,value
2018-05-17T00:01:54.964Z,24.70
2018-05-17T00:04:22.567Z,28.23
2018-05-17T00:06:50.073Z,25.30
2018-05-17T00:09:17.613Z,25.65
2018-05-17T00:11:45.939Z,27.90
2018-05-17T00:14:13.481Z,30.30
2018-05-17T00:16:41.009Z,28.40
2018-05-17T00:19:08.578Z,29.27
2018-05-17T00:21:36.915Z,29.60
2018-05-17T00:24:04.479Z,25.08
2018-05-17T00:26:32.038Z,27.10
2018-05-17T00:28:59.597Z,27.35
2018-05-17T00:31:27.174Z,28.38
2018-05-17T00:33:54.717Z,28.23
2018-05-17T00:36:22.299Z,27.73
2018-05-17T00:38:49.862Z,30.10
2018-05-17T00:41:17.408Z,28.83
2018-05-17T00:43:44.955Z,34.20
2018-05-17T00:46:13.262Z,28.48
2018-05-17T00:48:40.810Z,32.00
2018-05-17T00:51:08.379Z,29.60
2018-05-17T00:53:35.955Z,32.25
2018-05-17T00:56:03.534Z,30.62
2018-05-17T00:58:31.089Z,30.67
2018-05-17T01:00:58.655Z,33.25
2018-05-17T01:03:26.190Z,33.28
2018-05-17T01:05:53.802Z,30.80
2018-05-17T01:08:21.346Z,28.98
2018-05-17T01:10:48.890Z,32.55
2018-05-17T01:13:16.460Z,31.42
2018-05-17T01:15:44.029Z,36.22
2018-05-17T01:18:11.575Z,35.80
2018-05-17T01:20:39.126Z,31.60
2018-05-17T01:23:07.466Z,36.08
2018-05-17T01:25:35.031Z,35.03
2018-05-17T01:28:02.599Z,34.45
2018-05-17T01:30:30.143Z,36.40
2018-05-17T01:32:57.700Z,34.28
2018-05-17T01:35:25.241Z,37.83
2018-05-17T01:38:04.692Z,35.97
2018-05-17T01:40:32.239Z,37.55
2018-05-17T01:42:59.795Z,36.92
2018-05-17T01:45:27.361Z,36.03
2018-05-17T01:47:54.910Z,32.50
2018-05-17T01:50:23.234Z,35.80
2018-05-17T01:52:50.803Z,38.83
2018-05-17T01:55:18.370Z,36.13
2018-05-17T01:57:45.926Z,34.53
2018-05-17T02:00:13.582Z,35.70
2018-05-17T02:02:41.081Z,32.58
2018-05-17T02:05:08.657Z,39.10
2018-05-17T02:07:36.216Z,36.67
2018-05-17T02:10:03.858Z,34.42
2018-05-17T02:12:31.407Z,37.15
2018-05-17T02:14:58.968Z,36.42
2018-05-17T02:17:26.543Z,38.40
2018-05-17T02:19:54.115Z,37.88
2018-05-17T02:22:21.710Z,36.38
2018-05-17T02:24:49.259Z,37.33
2018-05-17T02:27:16.810Z,37.88
2018-05-17T02:29:44.368Z,35.55
2018-05-17T02:32:11.922Z,39.25
2018-05-17T02:34:39.491Z,35.38
2018-05-17T02:37:07.029Z,37.20
2018-05-17T02:39:34.584Z,37.53
2018-05-17T02:42:02.897Z,38.35
2018-05-17T02:44:30.484Z,38.97
2018-05-17T02:46:58.041Z,35.58
2018-05-17T02:49:25.600Z,34.30
2018-05-17T02:51:53.251Z,36.97
2018-05-17T02:54:20.761Z,35.35
2018-05-17T02:56:48.317Z,35.00
2018-05-17T02:59:15.861Z,36.90
2018-05-17T03:01:43.418Z,35.17
2018-05-17T03:04:11.027Z,34.50
2018-05-17T03:06:38.603Z,33.13
2018-05-17T03:09:06.939Z,35.30
2018-05-17T03:11:34.563Z,34.15
2018-05-17T03:14:02.111Z,37.40
2018-05-17T03:16:30.442Z,33.80
2018-05-17T03:18:57.977Z,36.20
2018-05-17T03:21:26.287Z,34.25
2018-05-17T03:23:53.833Z,35.70
2018-05-17T03:26:21.378Z,38.20
2018-05-17T03:28:49.710Z,35.42
2018-05-17T03:31:17.250Z,36.22
2018-05-17T03:33:44.794Z,34.65
2018-05-17T03:36:12.343Z,38.40
2018-05-17T03:38:40.681Z,36.47
2018-05-17T03:41:08.247Z,36.47
2018-05-17T03:43:35.818Z,36.60
2018-05-17T03:46:03.378Z,36.40
2018-05-17T03:48:30.920Z,39.63
2018-05-17T03:50:58.486Z,39.90
2018-05-17T03:53:26.039Z,33.35
2018-05-17T03:55:53.607Z,35.72
2018-05-17T03:58:21.174Z,37.85
2018-05-17T04:01:00.454Z,36.92
2018-05-17T04:03:39.849Z,38.95
2018-05-17T04:06:19.159Z,37.22
2018-05-17T04:08:46.703Z,33.55
2018-05-17T04:11:16.055Z,40.38
2018-05-17T04:13:43.607Z,36.67
2018-05-17T04:16:11.158Z,42.50
2018-05-17T04:18:38.705Z,38.97
2018-05-17T04:21:07.012Z,42.42
2018-05-17T04:23:34.548Z,40.72
2018-05-17T04:26:02.137Z,35.20
2018-05-17T04:28:29.701Z,34.25
2018-05-17T04:30:57.270Z,34.67
2018-05-17T04:33:24.814Z,38.90
2018-05-17T04:35:52.358Z,37.58
2018-05-17T04:38:20.661Z,36.13
2018-05-17T04:40:48.231Z,38.55
2018-05-17T04:43:15.807Z,36.00
2018-05-17T04:45:43.355Z,36.50
2018-05-17T04:48:10.893Z,36.28
2018-05-17T04:50:38.424Z,33.90
2018-05-17T04:53:05.975Z,32.80
2018-05-17T04:55:33.517Z,33.47
2018-05-17T04:58:01.094Z,36.15
2018-05-17T05:00:28.629Z,33.85
2018-05-17T05:02:56.954Z,31.17
2018-05-17T05:05:24.520Z,31.52
2018-05-17T05:07:52.058Z,33.15
2018-05-17T05:10:19.639Z,34.42
2018-05-17T05:12:47.188Z,32.38
2018-05-17T05:15:14.746Z,31.70
2018-05-17T05:17:42.294Z,34.78
2018-05-17T05:20:10.630Z,32.65
2018-05-17T05:22:38.202Z,30.65
2018-05-17T05:25:05.775Z,30.55
2018-05-17T05:27:33.360Z,30.05
2018-05-17T05:30:01.693Z,31.77
2018-05-17T05:32:29.244Z,30.67
2018-05-17T05:34:56.815Z,31.58
2018-05-17T05:37:24.371Z,32.95
2018-05-17T05:39:51.920Z,32.17
2018-05-17T05:42:19.497Z,33.10
2018-05-17T05:44:47.056Z,35.08
2018-05-17T05:47:14.615Z,32.40
2018-05-17T05:49:42.215Z,31.55
2018-05-17T05:52:09.758Z,32.78
2018-05-17T05:54:37.299Z,31.12
2018-05-17T05:57:04.893Z,29.83
2018-05-17T05:59:32.472Z,31.35
2018-05-17T06:02:00.041Z,29.05
2018-05-17T06:04:27.660Z,30.45
2018-05-17T06:06:55.206Z,29.92
2018-05-17T06:09:23.542Z,30.73
2018-05-17T06:11:51.096Z,28.87
2018-05-17T06:14:18.641Z,31.25
2018-05-17T06:16:46.188Z,29.77
2018-05-17T06:19:14.505Z,27.98
2018-05-17T06:21:42.072Z,30.92
2018-05-17T06:24:09.650Z,29.92
2018-05-17T06:26:37.270Z,31.10
2018-05-17T06:29:04.831Z,32.05
2018-05-17T06:31:33.159Z,28.50
2018-05-17T06:34:00.739Z,29.73
2018-05-17T06:36:28.291Z,30.27
2018-05-17T06:38:55.825Z,27.10
2018-05-17T06:41:23.408Z,27.20
2018-05-17T06:43:51.004Z,26.00
2018-05-17T06:46:18.555Z,25.90
2018-05-17T06:48:46.128Z,24.85
2018-05-17T06:51:13.694Z,24.02
2018-05-17T06:53:41.271Z,25.55
2018-05-17T06:56:09.607Z,25.50
2018-05-17T06:58:37.156Z,24.37
2018-05-17T07:01:04.832Z,25.23
2018-05-17T07:03:32.318Z,23.95
2018-05-17T07:05:59.872Z,23.98
2018-05-17T07:08:27.424Z,23.70
2018-05-17T07:10:54.995Z,24.45
2018-05-17T07:13:22.545Z,23.27
2018-05-17T07:15:50.078Z,25.15
2018-05-17T07:18:18.660Z,23.10
2018-05-17T07:20:46.013Z,23.17
2018-05-17T07:23:13.553Z,24.37
2018-05-17T07:25:41.159Z,23.70
2018-05-17T07:28:08.704Z,24.02
2018-05-17T07:30:37.013Z,25.12
2018-05-17T07:33:04.600Z,25.20
2018-05-17T07:35:32.153Z,25.98
2018-05-17T07:37:59.713Z,24.67
2018-05-17T07:40:27.255Z,21.42
2018-05-17T07:42:55.631Z,24.17
2018-05-17T07:45:23.961Z,23.20
2018-05-17T07:47:51.537Z,24.85
2018-05-17T07:50:19.083Z,22.83
2018-05-17T07:52:46.655Z,24.95
2018-05-17T07:55:14.234Z,23.55
2018-05-17T07:57:41.810Z,22.80
2018-05-17T08:00:09.387Z,22.33
2018-05-17T08:02:36.962Z,22.62
2018-05-17T08:05:05.304Z,22.58
2018-05-17T08:07:32.870Z,18.95
2018-05-17T08:10:00.433Z,19.60
2018-05-17T08:12:28.026Z,20.10
2018-05-17T08:14:55.582Z,19.37
2018-05-17T08:17:23.199Z,20.33
2018-05-17T08:19:50.771Z,20.25
2018-05-17T08:22:18.348Z,19.55
2018-05-17T08:24:45.919Z,19.17
2018-05-17T08:27:13.546Z,19.12
2018-05-17T08:29:41.105Z,21.00
2018-05-17T08:32:08.641Z,20.83
2018-05-17T08:34:36.186Z,20.85
2018-05-17T08:37:03.726Z,21.25
2018-05-17T08:39:31.275Z,21.17
2018-05-17T08:41:58.848Z,21.87
2018-05-17T08:44:26.410Z,21.20
2018-05-17T08:46:53.967Z,22.42
2018-05-17T08:49:21.524Z,22.08
2018-05-17T08:51:49.063Z,23.25
2018-05-17T08:54:17.426Z,23.12
2018-05-17T08:56:44.951Z,21.33
2018-05-17T08:59:12.500Z,21.33
2018-05-17T09:01:40.087Z,21.50
2018-05-17T09:04:07.625Z,22.35
2018-05-17T09:06:35.205Z,25.10
2018-05-17T09:09:02.807Z,23.45
2018-05-17T09:11:30.382Z,25.40
2018-05-17T09:13:57.933Z,23.58
2018-05-17T09:16:25.543Z,23.38
2018-05-17T09:18:53.095Z,24.35
2018-05-17T09:21:21.431Z,23.77
2018-05-17T09:23:48.984Z,23.75
2018-05-17T09:26:16.532Z,22.17
2018-05-17T09:28:44.081Z,22.42
2018-05-17T09:31:11.619Z,23.48
2018-05-17T09:33:39.187Z,21.52
2018-05-17T09:36:07.526Z,23.62
2018-05-17T09:38:35.085Z,24.02
2018-05-17T09:41:02.636Z,23.33
2018-05-17T09:43:30.182Z,23.20
2018-05-17T09:45:57.731Z,23.38
2018-05-17T09:48:26.083Z,22.92
2018-05-17T09:50:53.617Z,24.58
2018-05-17T09:53:21.191Z,23.27
2018-05-17T09:55:48.733Z,23.23
2018-05-17T09:58:16.303Z,24.15
2018-05-17T10:00:47.800Z,23.92
2018-05-17T10:03:15.347Z,23.70
2018-05-17T10:05:42.896Z,23.67
2018-05-17T10:08:10.438Z,23.45
2018-05-17T10:10:38.054Z,23.35
2018-05-17T10:13:05.601Z,24.67
2018-05-17T10:15:33.249Z,23.50
2018-05-17T10:18:00.764Z,24.23
2018-05-17T10:20:29.107Z,24.50
2018-05-17T10:22:56.674Z,20.77
2018-05-17T10:25:24.213Z,20.45
2018-05-17T10:27:51.752Z,19.20
2018-05-17T10:30:20.087Z,20.35
2018-05-17T10:32:47.656Z,19.23
2018-05-17T10:35:15.208Z,20.10
2018-05-17T10:37:42.766Z,20.58
2018-05-17T10:40:10.399Z,20.08
2018-05-17T10:42:37.938Z,18.62
2018-05-17T10:45:05.539Z,20.95
2018-05-17T10:47:33.122Z,19.65
2018-05-17T10:50:00.661Z,19.23
2018-05-17T10:52:28.232Z,19.77
2018-05-17T10:54:55.778Z,20.15
2018-05-17T10:57:24.117Z,20.55
2018-05-17T10:59:51.657Z,21.40
2018-05-17T11:02:19.203Z,20.12
2018-05-17T11:04:46.761Z,20.88
2018-05-17T11:07:14.334Z,19.58
2018-05-17T11:09:41.946Z,20.08
2018-05-17T11:12:09.611Z,18.83
2018-05-17T11:14:37.151Z,19.30
2018-05-17T11:17:04.723Z,21.12
2018-05-17T11:19:32.256Z,18.98
2018-05-17T11:21:59.809Z,17.92
2018-05-17T11:24:27.383Z,18.15
2018-05-17T11:26:55.835Z,17.73
2018-05-17T11:29:23.401Z,18.37
2018-05-17T11:31:51.024Z,19.27
2018-05-17T11:34:18.648Z,20.33
2018-05-17T11:36:46.195Z,19.73
2018-05-17T11:39:13.733Z,19.27
2018-05-17T11:41:41.326Z,19.65
2018-05-17T11:44:09.704Z,19.52
2018-05-17T11:46:37.240Z,18.42
2018-05-17T11:49:04.776Z,17.85
2018-05-17T11:51:32.347Z,19.10
2018-05-17T11:53:59.894Z,18.12
2018-05-17T11:56:27.486Z,19.12
2018-05-17T11:58:55.059Z,19.40
2018-05-17T12:01:22.672Z,17.90
2018-05-17T12:03:50.995Z,18.62
2018-05-17T12:06:18.543Z,16.45
2018-05-17T12:08:46.077Z,16.98
2018-05-17T12:11:14.386Z,16.83
2018-05-17T12:13:41.947Z,18.15
2018-05-17T12:16:09.495Z,16.00
2018-05-17T12:18:37.042Z,15.35
2018-05-17T12:21:05.341Z,15.15
2018-05-17T12:23:33.670Z,15.02
2018-05-17T12:26:01.231Z,14.68
2018-05-17T12:28:28.784Z,16.90
2018-05-17T12:30:56.362Z,15.23
2018-05-17T12:33:23.899Z,14.50
2018-05-17T12:35:51.474Z,15.15
2018-05-17T12:38:19.023Z,13.60
2018-05-17T12:40:46.687Z,15.95
2018-05-17T12:43:14.238Z,15.82
2018-05-17T12:45:41.844Z,15.05
2018-05-17T12:48:09.411Z,15.32
2018-05-17T12:50:36.992Z,15.48
2018-05-17T12:53:04.559Z,16.33
2018-05-17T12:55:32.116Z,15.05
2018-05-17T12:57:59.679Z,15.57
2018-05-17T13:00:27.967Z,15.00
2018-05-17T13:02:55.535Z,15.80
2018-05-17T13:05:23.941Z,16.92
2018-05-17T13:07:52.249Z,16.35
2018-05-17T13:10:19.907Z,16.25
2018-05-17T13:12:47.484Z,16.05
2018-05-17T13:15:15.059Z,15.05
2018-05-17T13:17:42.611Z,16.50
2018-05-17T13:20:10.206Z,16.80
2018-05-17T13:22:37.787Z,15.85
2018-05-17T13:25:05.388Z,15.93
2018-05-17T13:27:32.942Z,16.60
2018-05-17T13:30:01.255Z,17.98
2018-05-17T13:32:28.799Z,18.00
2018-05-17T13:34:57.116Z,16.77
2018-05-17T13:37:24.787Z,18.15
2018-05-17T13:39:52.233Z,18.17
2018-05-17T13:42:19.790Z,18.95
2018-05-17T13:44:47.326Z,19.98
2018-05-17T13:47:15.662Z,18.83
2018-05-17T13:49:43.225Z,19.73
2018-05-17T13:52:10.761Z,19.55
2018-05-17T13:54:38.350Z,19.90
2018-05-17T13:57:05.904Z,18.85
2018-05-17T13:59:33.468Z,22.08
2018-05-17T14:02:01.060Z,20.37
2018-05-17T14:04:28.864Z,20.55
2018-05-17T14:06:57.807Z,21.95
2018-05-17T14:09:25.353Z,21.87
2018-05-17T14:11:52.911Z,21.58
2018-05-17T14:14:20.449Z,22.37
2018-05-17T14:16:49.416Z,22.02
2018-05-17T14:19:16.997Z,20.35
2018-05-17T14:21:44.546Z,19.60
2018-05-17T14:24:12.095Z,19.40
2018-05-17T14:26:39.643Z,21.08
2018-05-17T14:29:07.210Z,19.83
2018-05-17T14:31:34.779Z,21.45
2018-05-17T14:34:02.357Z,21.52
2018-05-17T14:36:29.910Z,21.33
2018-05-17T14:38:57.485Z,20.02
2018-05-17T14:41:25.045Z,20.50
2018-05-17T14:43:53.628Z,22.80
2018-05-17T14:46:21.173Z,22.67
2018-05-17T14:48:48.771Z,21.55
2018-05-17T14:51:16.440Z,24.23
2018-05-17T14:53:44.029Z,21.50
2018-05-17T14:56:12.370Z,22.35
2018-05-17T14:58:39.939Z,23.70
2018-05-17T15:01:07.559Z,20.98
2018-05-17T15:03:35.094Z,20.98
2018-05-17T15:06:03.413Z,23.50
2018-05-17T15:08:31.070Z,24.37
2018-05-17T15:10:59.343Z,22.15
2018-05-17T15:13:26.957Z,22.60
2018-05-17T15:15:54.510Z,24.70
2018-05-17T15:18:22.046Z,22.42
2018-05-17T15:20:49.621Z,23.45
2018-05-17T15:23:17.191Z,21.75
2018-05-17T15:25:44.764Z,25.42
2018-05-17T15:28:12.407Z,23.50
2018-05-17T15:30:40.012Z,21.85
2018-05-17T15:33:07.556Z,23.08
2018-05-17T15:35:35.123Z,21.73
2018-05-17T15:38:02.699Z,22.70
2018-05-17T15:40:30.252Z,22.20
2018-05-17T15:42:57.823Z,22.67
2018-05-17T15:45:25.393Z,22.80
2018-05-17T15:47:52.957Z,25.35
2018-05-17T15:50:20.535Z,22.52
2018-05-17T15:52:48.099Z,23.73
2018-05-17T15:55:15.672Z,22.15
2018-05-17T15:57:43.252Z,22.10
2018-05-17T16:00:11.592Z,22.87
2018-05-17T16:02:39.140Z,23.20
2018-05-17T16:05:06.682Z,23.50
2018-05-17T16:07:34.221Z,22.37
2018-05-17T16:10:01.785Z,23.48
2018-05-17T16:12:29.386Z,21.15
2018-05-17T16:14:57.051Z,21.85
2018-05-17T16:17:24.499Z,20.60
2018-05-17T16:19:52.816Z,21.87
2018-05-17T16:22:20.370Z,21.20
2018-05-17T16:24:47.923Z,22.13
2018-05-17T16:27:15.501Z,20.50
2018-05-17T16:29:43.083Z,19.58
2018-05-17T16:32:10.655Z,21.10
2018-05-17T16:34:38.218Z,20.88
2018-05-17T16:37:05.796Z,20.48
2018-05-17T16:39:33.349Z,20.65
2018-05-17T16:42:00.902Z,20.23
2018-05-17T16:44:28.470Z,19.73
2018-05-17T16:46:56.046Z,18.45
2018-05-17T16:49:23.618Z,20.45
2018-05-17T16:51:51.230Z,19.42
2018-05-17T16:54:18.818Z,20.20
2018-05-17T16:56:46.436Z,18.87
2018-05-17T16:59:14.755Z,18.40
2018-05-17T17:01:42.293Z,18.98
2018-05-17T17:04:10.606Z,18.90
2018-05-17T17:06:38.194Z,18.45
2018-05-17T17:09:05.802Z,17.45
2018-05-17T17:11:34.167Z,19.42
2018-05-17T17:14:02.487Z,16.95
2018-05-17T17:16:30.039Z,18.98
2018-05-17T17:18:57.587Z,20.88
2018-05-17T17:21:25.899Z,18.98
2018-05-17T17:23:53.560Z,17.50
2018-05-17T17:26:21.034Z,15.98
2018-05-17T17:28:48.611Z,16.33
2018-05-17T17:31:16.149Z,17.87
2018-05-17T17:33:43.694Z,17.05
2018-05-17T17:36:12.051Z,20.12
2018-05-17T17:38:39.630Z,18.58
2018-05-17T17:41:07.956Z,16.35
2018-05-17T17:43:35.526Z,17.83
2018-05-17T17:46:03.071Z,17.55
2018-05-17T17:48:30.670Z,17.55
2018-05-17T17:50:58.213Z,15.82
2018-05-17T17:53:27.722Z,16.75
2018-05-17T17:55:55.309Z,17.37
2018-05-17T17:58:23.512Z,16.77
2018-05-17T18:00:51.111Z,16.23
2018-05-17T18:03:18.665Z,15.57
2018-05-17T18:05:47.096Z,16.12
2018-05-17T18:08:15.482Z,15.55
2018-05-17T18:10:43.080Z,14.73
2018-05-17T18:13:11.402Z,15.32
2018-05-17T18:15:39.044Z,15.23
2018-05-17T18:18:06.630Z,13.02
2018-05-17T18:20:34.221Z,14.43
2018-05-17T18:23:01.805Z,16.15
2018-05-17T18:25:29.345Z,13.93
2018-05-17T18:27:56.902Z,14.13
2018-05-17T18:30:24.446Z,15.18
2018-05-17T18:32:52.023Z,15.23
2018-05-17T18:35:19.583Z,17.30
2018-05-17T18:37:47.776Z,16.37
2018-05-17T18:40:15.320Z,17.40
2018-05-17T18:42:42.867Z,17.95
2018-05-17T18:45:10.414Z,16.70
2018-05-17T18:47:38.732Z,17.92
2018-05-17T18:50:06.306Z,19.83
2018-05-17T18:52:33.859Z,20.62
2018-05-17T18:55:01.468Z,18.05
2018-05-17T18:57:29.066Z,19.70
2018-05-17T18:59:56.625Z,19.10
2018-05-17T19:02:24.967Z,19.40
2018-05-17T19:04:52.523Z,20.48
2018-05-17T19:07:20.155Z,21.05
2018-05-17T19:09:47.733Z,19.40
2018-05-17T19:12:15.370Z,22.55
2018-05-17T19:14:43.701Z,19.40
2018-05-17T19:17:11.309Z,19.33
2018-05-17T19:19:38.887Z,17.90
2018-05-17T19:22:06.458Z,20.77
2018-05-17T19:24:34.007Z,22.15
2018-05-17T19:27:02.346Z,22.67
2018-05-17T19:29:29.922Z,18.83
2018-05-17T19:31:57.479Z,18.80
2018-05-17T19:34:25.041Z,19.95
2018-05-17T19:36:52.638Z,20.67
2018-05-17T19:39:20.973Z,19.27
2018-05-17T19:41:48.674Z,19.42
2018-05-17T19:44:16.145Z,20.67
2018-05-17T19:46:43.696Z,19.27
2018-05-17T19:49:11.254Z,19.10
2018-05-17T19:51:38.823Z,20.37
2018-05-17T19:54:06.357Z,17.55
2018-05-17T19:56:33.909Z,18.27
2018-05-17T19:59:01.490Z,18.55
2018-05-17T20:01:29.076Z,17.85
2018-05-17T20:03:56.632Z,18.42
2018-05-17T20:06:24.203Z,17.62
2018-05-17T20:08:51.826Z,18.15
2018-05-17T20:11:19.457Z,18.10
2018-05-17T20:13:47.015Z,17.23
2018-05-17T20:16:14.568Z,16.65
2018-05-17T20:18:42.231Z,17.73
2018-05-17T20:21:10.499Z,17.55
2018-05-17T20:23:38.063Z,17.85
2018-05-17T20:26:05.655Z,17.50
2018-05-17T20:28:33.212Z,17.52
2018-05-17T20:31:00.781Z,15.68
2018-05-17T20:33:28.338Z,17.20
2018-05-17T20:35:55.907Z,17.20
2018-05-17T20:38:23.479Z,16.58
2018-05-17T20:40:51.804Z,15.52
2018-05-17T20:43:19.371Z,16.58
2018-05-17T20:45:46.962Z,16.00
2018-05-17T20:48:14.530Z,14.90
2018-05-17T20:50:42.074Z,14.95
2018-05-17T20:53:09.639Z,16.77
2018-05-17T20:55:37.199Z,13.80
2018-05-17T20:58:04.796Z,14.93
2018-05-17T21:00:32.379Z,15.38
2018-05-17T21:03:00.708Z,15.27
2018-05-17T21:05:28.279Z,14.02
2018-05-17T21:07:55.828Z,14.15
2018-05-17T21:10:23.399Z,15.10
2018-05-17T21:12:51.023Z,14.35
2018-05-17T21:15:18.545Z,12.30
2018-05-17T21:17:46.111Z,13.90
2018-05-17T21:20:13.665Z,12.02
2018-05-17T21:22:41.225Z,14.23
2018-05-17T21:25:08.785Z,14.50
2018-05-17T21:27:36.326Z,12.93
2018-05-17T21:30:03.884Z,12.77
2018-05-17T21:32:31.462Z,13.45
2018-05-17T21:34:59.026Z,15.00
2018-05-17T21:37:26.591Z,13.85
2018-05-17T21:39:54.169Z,12.82
2018-05-17T21:42:21.752Z,12.00
2018-05-17T21:44:49.348Z,14.52
2018-05-17T21:47:16.916Z,13.00
2018-05-17T21:49:44.495Z,13.73
2018-05-17T21:52:12.034Z,11.68
2018-05-17T21:54:39.582Z,12.50
2018-05-17T21:57:07.158Z,13.70
2018-05-17T21:59:34.711Z,12.77
2018-05-17T22:02:02.303Z,13.62
2018-05-17T22:04:30.613Z,11.65
2018-05-17T22:06:58.181Z,12.93
2018-05-17T22:09:25.730Z,13.85
2018-05-17T22:11:54.039Z,12.05
2018-05-17T22:14:21.582Z,12.73
2018-05-17T22:16:49.155Z,11.20
2018-05-17T22:19:16.708Z,12.35
2018-05-17T22:21:44.281Z,13.20
2018-05-17T22:24:11.833Z,13.10
2018-05-17T22:26:39.411Z,12.10
2018-05-17T22:29:06.958Z,11.90
2018-05-17T22:31:35.298Z,12.90
2018-05-17T22:34:02.866Z,11.57
2018-05-17T22:36:30.445Z,11.85
2018-05-17T22:38:58.019Z,12.02
2018-05-17T22:41:26.352Z,12.05
2018-05-17T22:43:53.906Z,12.05
2018-05-17T22:46:21.478Z,11.55
2018-05-17T22:48:49.021Z,11.48
2018-05-17T22:51:16.576Z,11.43
2018-05-17T22:53:44.126Z,12.32
2018-05-17T22:56:32.982Z,11.10
2018-05-17T22:59:01.316Z,13.25
2018-05-17T23:01:28.896Z,11.35
2018-05-17T23:03:56.469Z,13.18
2018-05-17T23:06:24.039Z,10.90
2018-05-17T23:08:51.626Z,11.07
2018-05-17T23:11:19.207Z,11.63
2018-05-17T23:13:46.779Z,10.82
2018-05-17T23:16:14.348Z,12.50
2018-05-17T23:18:41.898Z,12.30
2018-05-17T23:21:09.474Z,12.30
2018-05-17T23:23:37.031Z,12.00
2018-05-17T23:26:04.573Z,11.07
2018-05-17T23:28:32.891Z,12.55
2018-05-17T23:31:00.462Z,12.37
2018-05-17T23:33:28.038Z,12.57
2018-05-17T23:35:55.585Z,11.25
2018-05-17T23:38:23.150Z,12.15
2018-05-17T23:41:12.269Z,12.98
2018-05-17T23:43:39.856Z,11.63
2018-05-17T23:46:07.397Z,12.48
2018-05-17T23:48:35.761Z,13.32
2018-05-17T23:51:04.090Z,13.15
2018-05-17T23:53:31.638Z,13.65
2018-05-17T23:55:59.202Z,13.48
2018-05-17T23:58:26.822Z,14.55
